Time;durP1;ratioP1;P1;durP2;ratioP2;P2;SDS_P1;SDS_P2;PMS_P1;PMS_P2;Temp;Humidity;BMP_temperature;BMP_pressure;BME280_temperature;BME280_humidity;BME280_pressure;Samples;Min_cycle;Max_cycle;Signal;HPM_P1;HPM_P2
2021/01/27 00:01:19;;;;;;;;;;;;;;;-0.66;100.00;100723.53;5112757;28;19931;-69
2021/01/27 00:03:47;;;;;;;;;;;;;;;-0.66;100.00;100726.19;5112607;28;19923;-69
2021/01/27 00:06:12;;;;;;;;;;;;;;;-0.72;100.00;100729.91;5112364;28;19923;-69
2021/01/27 00:08:38;;;;;;;;;;;;;;;-0.78;100.00;100732.81;5112535;28;19931;-69
2021/01/27 00:11:04;;;;;;;;;;;;;;;-0.77;100.00;100729.25;5112596;28;19925;-69
2021/01/27 00:13:31;;;;;;;;;;;;;;;-0.80;100.00;100729.31;5112420;28;19969;-69
2021/01/27 00:15:56;;;;;;;;;;;;;;;-0.80;100.00;100722.22;5112219;28;19966;-69
2021/01/27 00:18:22;;;;;;;;;;;;;;;-0.78;100.00;100732.81;5112300;28;19924;-69
2021/01/27 00:20:48;;;;;;;;;;;;;;;-0.76;100.00;100730.94;5112412;28;19924;-69
2021/01/27 00:23:14;;;;;;;;;;;;;;;-0.73;100.00;100728.22;5112367;28;20396;-69
2021/01/27 00:25:40;;;;;;;;;;;;;;;-0.69;100.00;100735.19;5111918;28;19939;-69
2021/01/27 00:28:07;;;;;;;;;;;;;;;-0.70;100.00;100736.09;5112282;28;19924;-69
2021/01/27 00:30:35;;;;;;;;;;;;;;;-0.69;100.00;100732.50;5112070;28;19924;-69
2021/01/27 00:33:01;;;;;;;;;;;;;;;-0.66;100.00;100737.72;5112208;28;19970;-69
2021/01/27 00:35:29;;;;;;;;;;;;;;;-0.63;100.00;100740.28;5111873;28;19967;-69
2021/01/27 00:37:55;;;;;;;;;;;;;;;-0.62;100.00;100744.69;5111954;28;19959;-69
2021/01/27 00:40:21;;;;;;;;;;;;;;;-0.60;100.00;100741.97;5112043;28;20365;-69
2021/01/27 00:42:47;;;;;;;;;;;;;;;-0.59;100.00;100741.94;5112025;28;20404;-69
2021/01/27 00:45:13;;;;;;;;;;;;;;;-0.57;100.00;100741.88;5111977;28;19977;-69
2021/01/27 00:47:40;;;;;;;;;;;;;;;-0.53;100.00;100747.03;5110351;28;19924;-69
2021/01/27 00:50:06;;;;;;;;;;;;;;;-0.54;100.00;100742.63;5112257;28;19924;-69
2021/01/27 00:52:32;;;;;;;;;;;;;;;-0.53;100.00;100738.19;5111582;28;19931;-69
2021/01/27 00:54:58;;;;;;;;;;;;;;;-0.49;100.00;100738.91;5112227;28;19924;-69
2021/01/27 00:57:24;;;;;;;;;;;;;;;-0.49;100.00;100731.81;5110519;28;20407;-69
2021/01/27 00:59:49;;;;;;;;;;;;;;;-0.48;100.00;100748.66;5112088;28;19923;-69
2021/01/27 01:02:16;;;;;;;;;;;;;;;-0.45;100.00;100745.91;5109951;28;19977;-69
2021/01/27 01:04:51;;;;;;;;;;;;;;;-0.46;100.00;100738.84;5114817;28;19931;-69
2021/01/27 01:07:17;;;;;;;;;;;;;;;-0.47;100.00;100737.94;5115717;28;19927;-69
2021/01/27 01:09:43;;;;;;;;;;;;;;;-0.45;100.00;100740.59;5116009;28;19931;-69
2021/01/27 01:12:09;;;;;;;;;;;;;;;-0.46;100.00;100737.03;5115988;28;20351;-69
2021/01/27 01:14:34;;;;;;;;;;;;;;;-0.45;100.00;100736.09;5115831;28;19930;-69
2021/01/27 01:17:00;;;;;;;;;;;;;;;-0.45;100.00;100736.09;5115630;28;19927;-69
2021/01/27 01:19:26;;;;;;;;;;;;;;;-0.44;100.00;100742.31;5115929;27;20313;-69
2021/01/27 01:21:53;;;;;;;;;;;;;;;-0.46;100.00;100742.38;5115802;28;20475;-69
2021/01/27 01:24:18;;;;;;;;;;;;;;;-0.47;100.00;100735.28;5115757;28;19955;-69
2021/01/27 01:26:44;;;;;;;;;;;;;;;-0.47;100.00;100737.09;5115363;28;20316;-69
2021/01/27 01:29:10;;;;;;;;;;;;;;;-0.49;100.00;100728.25;5115775;28;20003;-69
2021/01/27 01:31:36;;;;;;;;;;;;;;;-0.51;100.00;100731.88;5115593;28;19923;-69
2021/01/27 01:34:01;;;;;;;;;;;;;;;-0.53;100.00;100733.72;5115672;28;19924;-69
2021/01/27 01:36:27;;;;;;;;;;;;;;;-0.55;100.00;100727.56;5115157;28;20440;-69
2021/01/27 01:38:54;;;;;;;;;;;;;;;-0.57;100.00;100734.75;5115379;28;19931;-69
2021/01/27 01:41:20;;;;;;;;;;;;;;;-0.59;100.00;100733.94;5115537;28;19957;-69
2021/01/27 01:43:45;;;;;;;;;;;;;;;-0.58;100.00;100724.13;5115426;28;19930;-69
2021/01/27 01:46:12;;;;;;;;;;;;;;;-0.58;100.00;100730.31;5115183;28;19934;-69
2021/01/27 01:48:40;;;;;;;;;;;;;;;-0.58;100.00;100729.47;5115278;28;19962;-69
2021/01/27 01:51:10;;;;;;;;;;;;;;;-0.57;100.00;100725.88;5115318;28;19923;-69
2021/01/27 01:53:36;;;;;;;;;;;;;;;-0.56;100.00;100731.16;5115143;28;19923;-69
2021/01/27 01:56:04;;;;;;;;;;;;;;;-0.55;100.00;100714.25;5114823;28;20458;-69
2021/01/27 01:58:30;;;;;;;;;;;;;;;-0.57;100.00;100721.41;5115097;28;20043;-69
2021/01/27 02:00:58;;;;;;;;;;;;;;;-0.55;100.00;100724.00;5115237;28;19931;-69
2021/01/27 02:03:24;;;;;;;;;;;;;;;-0.53;100.00;100711.50;5113827;28;19977;-69
2021/01/27 02:05:50;;;;;;;;;;;;;;;-0.54;100.00;100715.97;5114682;28;19967;-69
2021/01/27 02:08:16;;;;;;;;;;;;;;;-0.57;100.00;100723.22;5115011;28;20446;-69
2021/01/27 02:10:42;;;;;;;;;;;;;;;-0.59;100.00;100717.94;5114868;28;19975;-69
2021/01/27 02:13:32;;;;;;;;;;;;;;;-0.60;100.00;100705.53;5114236;28;19924;-69
2021/01/27 02:16:19;;;;;;;;;;;;;;;-0.64;100.00;100714.56;5114519;28;19973;-69
2021/01/27 02:19:02;;;;;;;;;;;;;;;-0.62;100.00;100717.16;5109600;28;20341;-69
2021/01/27 02:21:39;;;;;;;;;;;;;;;-0.67;100.00;100706.66;5114537;28;19978;-69
2021/01/27 02:24:25;;;;;;;;;;;;;;;-0.69;100.00;100712.03;5114674;28;19931;-69
2021/01/27 02:26:58;;;;;;;;;;;;;;;-0.72;100.00;100717.47;5114318;28;19984;-69
2021/01/27 02:29:38;;;;;;;;;;;;;;;-0.74;100.00;100708.66;5114636;28;19959;-69
2021/01/27 02:32:15;;;;;;;;;;;;;;;-0.76;100.00;100709.63;5114560;28;20354;-69
2021/01/27 02:34:52;;;;;;;;;;;;;;;-0.77;100.00;100723.91;5114449;28;19950;-69
2021/01/27 02:37:20;;;;;;;;;;;;;;;-0.79;100.00;100717.75;5114161;28;20371;-69
2021/01/27 02:39:49;;;;;;;;;;;;;;;-0.76;100.00;100726.50;5114072;28;20010;-69
2021/01/27 02:42:39;;;;;;;;;;;;;;;-0.73;100.00;100725.53;5114386;28;19967;-70
2021/01/27 02:45:08;;;;;;;;;;;;;;;-0.73;100.00;100722.88;5114179;28;20438;-70
2021/01/27 02:47:38;;;;;;;;;;;;;;;-0.72;100.00;100727.25;5113946;28;19992;-69
2021/01/27 02:50:07;;;;;;;;;;;;;;;-0.72;100.00;100728.16;5114139;28;19923;-69
2021/01/27 02:52:36;;;;;;;;;;;;;;;-0.73;100.00;100725.53;5114181;28;19955;-69
2021/01/27 02:55:09;;;;;;;;;;;;;;;-0.71;100.00;100727.22;5113737;28;20340;-69
2021/01/27 02:57:37;;;;;;;;;;;;;;;-0.75;100.00;100717.59;5093487;28;20018;-70
2021/01/27 03:00:07;;;;;;;;;;;;;;;-0.82;100.00;100723.19;5093553;28;19971;-69
2021/01/27 03:02:35;;;;;;;;;;;;;;;-0.89;100.00;100726.03;5093586;28;20023;-69
2021/01/27 03:05:06;;;;;;;;;;;;;;;-0.92;100.00;100719.94;5093410;28;20023;-69
2021/01/27 03:07:34;;;;;;;;;;;;;;;-0.97;100.00;100716.59;5093188;28;20378;-69
2021/01/27 03:10:01;;;;;;;;;;;;;;;-1.05;100.00;100715.03;5093219;28;20011;-69
2021/01/27 03:12:27;;;;;;;;;;;;;;;-1.12;100.00;100723.25;5093193;28;19939;-69
2021/01/27 03:14:53;;;;;;;;;;;;;;;-1.13;100.00;100725.06;5093188;28;19924;-69
2021/01/27 03:17:21;;;;;;;;;;;;;;;-1.13;100.00;100729.53;5092932;28;20638;-69
2021/01/27 03:19:53;;;;;;;;;;;;;;;-1.16;100.00;100726.94;5093066;28;19977;-69
2021/01/27 03:22:21;;;;;;;;;;;;;;;-1.21;100.00;100732.44;5093217;28;20568;-69
2021/01/27 03:24:51;;;;;;;;;;;;;;;-1.32;100.00;100724.81;5093008;28;20449;-69
2021/01/27 03:27:21;;;;;;;;;;;;;;;-1.39;100.00;100733.88;5092774;28;19962;-69
2021/01/27 03:29:48;;;;;;;;;;;;;;;-1.40;100.00;100734.84;5093013;28;19955;-69
2021/01/27 03:32:17;;;;;;;;;;;;;;;-1.38;100.00;100739.19;5092961;28;20331;-69
2021/01/27 03:34:46;;;;;;;;;;;;;;;-1.37;100.00;100734.72;5092792;28;19924;-69
2021/01/27 03:37:15;;;;;;;;;;;;;;;-1.38;100.00;100736.53;5092594;28;19931;-69
2021/01/27 03:39:43;;;;;;;;;;;;;;;-1.35;100.00;100738.19;5092672;28;19928;-69
2021/01/27 03:42:17;;;;;;;;;;;;;;;-1.35;100.00;100730.19;5092782;28;19956;-69
2021/01/27 03:44:44;;;;;;;;;;;;;;;-1.38;100.00;100741.84;5092781;28;20019;-69
2021/01/27 03:47:14;;;;;;;;;;;;;;;-1.48;100.00;100737.72;5092498;28;20370;-69
2021/01/27 03:49:43;;;;;;;;;;;;;;;-1.54;100.00;100738.81;5092590;28;20393;-69
2021/01/27 03:52:12;;;;;;;;;;;;;;;-1.60;100.00;100735.44;5092638;28;20018;-69
2021/01/27 03:54:39;;;;;;;;;;;;;;;-1.69;100.00;100734.78;5092484;28;19970;-69
2021/01/27 03:57:06;;;;;;;;;;;;;;;-1.77;100.00;100742.13;5092225;28;20393;-69
2021/01/27 03:59:33;;;;;;;;;;;;;;;-1.85;100.00;100738.84;5092521;28;19983;-69
2021/01/27 04:01:59;;;;;;;;;;;;;;;-1.89;100.00;100740.72;5092750;28;20018;-69
2021/01/27 04:04:25;;;;;;;;;;;;;;;-1.95;100.00;100738.25;5092717;28;19931;-69
2021/01/27 04:06:51;;;;;;;;;;;;;;;-1.98;100.00;100740.97;5092026;28;19967;-69
2021/01/27 04:09:17;;;;;;;;;;;;;;;-2.02;100.00;100744.63;5092318;28;19924;-69
2021/01/27 04:11:43;;;;;;;;;;;;;;;-2.02;100.00;100739.31;5092209;28;19924;-69
2021/01/27 04:14:09;;;;;;;;;;;;;;;-1.98;100.00;100735.66;5092269;28;19924;-69
2021/01/27 04:16:35;;;;;;;;;;;;;;;-1.92;100.00;100738.16;5090731;28;19978;-69
2021/01/27 04:19:03;;;;;;;;;;;;;;;-1.85;100.00;100739.69;5092144;28;19974;-69
2021/01/27 04:21:29;;;;;;;;;;;;;;;-1.76;100.00;100743.03;5092045;28;19963;-69
2021/01/27 04:23:54;;;;;;;;;;;;;;;-1.71;100.00;100743.72;5091994;28;19931;-69
2021/01/27 04:26:20;;;;;;;;;;;;;;;-1.70;100.00;100746.38;5091819;28;20309;-69
2021/01/27 04:28:47;;;;;;;;;;;;;;;-1.69;100.00;100733.94;5092061;28;19971;-69
2021/01/27 04:31:13;;;;;;;;;;;;;;;-1.69;100.00;100740.09;5091941;28;19970;-69
2021/01/27 04:33:40;;;;;;;;;;;;;;;-1.63;100.00;100740.84;5091905;28;19924;-69
2021/01/27 04:36:06;;;;;;;;;;;;;;;-1.64;100.00;100739.09;5091258;28;20417;-69
2021/01/27 04:38:32;;;;;;;;;;;;;;;-1.65;100.00;100724.94;5091720;28;20014;-70
2021/01/27 04:40:58;;;;;;;;;;;;;;;-1.65;100.00;100726.72;5091828;28;19924;-69
2021/01/27 04:43:28;;;;;;;;;;;;;;;-1.63;100.00;100727.53;5091919;28;20027;-69
2021/01/27 04:45:58;;;;;;;;;;;;;;;-1.63;100.00;100724.88;5091602;28;19931;-69
2021/01/27 04:48:28;;;;;;;;;;;;;;;-1.63;100.00;100722.22;5102555;28;19966;-69
2021/01/27 04:50:58;;;;;;;;;;;;;;;-1.63;100.00;100716.88;5112066;28;20001;-69
2021/01/27 04:53:55;;;;;;;;;;;;;;;-1.64;100.00;100720.47;5112212;28;19959;-69
2021/01/27 04:56:27;;;;;;;;;;;;;;;-1.68;100.00;100714.38;5048887;28;20020;-69
2021/01/27 04:58:56;;;;;;;;;;;;;;;-1.70;100.00;100714.44;5099817;28;20011;-69
2021/01/27 05:01:30;;;;;;;;;;;;;;;-1.67;100.00;100709.91;5112062;28;20086;-69
2021/01/27 05:04:03;;;;;;;;;;;;;;;-1.68;100.00;100714.38;5112010;28;20392;-69
2021/01/27 05:06:31;;;;;;;;;;;;;;;-1.70;100.00;100717.09;5111766;28;19924;-68
2021/01/27 05:09:02;;;;;;;;;;;;;;;-1.68;100.00;100725.03;5111970;28;19931;-69
2021/01/27 05:11:29;;;;;;;;;;;;;;;-1.66;100.00;100707.19;5112052;28;19970;-68
2021/01/27 05:13:56;;;;;;;;;;;;;;;-1.64;100.00;100718.69;5111913;28;19927;-68
2021/01/27 05:16:23;;;;;;;;;;;;;;;-1.63;100.00;100719.56;5112293;28;20014;-68
2021/01/27 05:18:50;;;;;;;;;;;;;;;-1.64;100.00;100721.34;5111825;28;20389;-68
2021/01/27 05:21:18;;;;;;;;;;;;;;;-1.71;100.00;100707.38;5111831;28;20015;-69
2021/01/27 05:23:44;;;;;;;;;;;;;;;-1.72;100.00;100718.06;5111877;28;20460;-68
2021/01/27 05:26:11;;;;;;;;;;;;;;;-1.70;100.00;100708.22;5111531;28;20031;-69
2021/01/27 05:28:39;;;;;;;;;;;;;;;-1.67;100.00;100704.59;5111863;28;20424;-69
2021/01/27 05:31:05;;;;;;;;;;;;;;;-1.70;100.00;100705.56;5111704;28;20459;-68
2021/01/27 05:33:44;;;;;;;;;;;;;;;-1.67;100.00;100709.91;5110615;28;19924;-68
2021/01/27 05:36:14;;;;;;;;;;;;;;;-1.66;100.00;100698.34;5111222;28;19928;-68
2021/01/27 05:38:39;;;;;;;;;;;;;;;-1.59;100.00;100706.13;5111351;28;19966;-68
2021/01/27 05:41:07;;;;;;;;;;;;;;;-1.56;100.00;100711.34;5106306;28;20028;-69
2021/01/27 05:43:35;;;;;;;;;;;;;;;-1.52;100.00;100709.47;5097306;28;20331;-69
2021/01/27 05:46:11;;;;;;;;;;;;;;;-1.54;100.00;100705.97;5108979;28;19963;-68
2021/01/27 05:48:47;;;;;;;;;;;;;;;-1.53;100.00;100708.56;5107377;28;20442;-68
2021/01/27 05:51:15;;;;;;;;;;;;;;;-1.56;100.00;100703.34;5097287;28;20301;-68
2021/01/27 05:53:41;;;;;;;;;;;;;;;-1.60;100.00;100691.06;5094819;28;19936;-68
2021/01/27 05:56:15;;;;;;;;;;;;;;;-1.60;100.00;100692.84;5094344;28;20400;-68
2021/01/27 05:58:43;;;;;;;;;;;;;;;-1.53;100.00;100700.56;5095052;28;19924;-68
2021/01/27 06:01:26;;;;;;;;;;;;;;;-1.50;100.00;100706.75;5095951;28;20007;-68
2021/01/27 06:03:54;;;;;;;;;;;;;;;-1.51;100.00;100700.53;5115765;28;20401;-68
2021/01/27 06:06:21;;;;;;;;;;;;;;;-1.45;100.00;100711.00;5112701;28;20247;-68
2021/01/27 06:08:51;;;;;;;;;;;;;;;-1.48;100.00;100713.75;5094881;28;19947;-68
2021/01/27 06:11:17;;;;;;;;;;;;;;;-1.47;100.00;100702.19;5099099;28;19971;-68
2021/01/27 06:13:43;;;;;;;;;;;;;;;-1.50;100.00;100701.41;5116222;27;20018;-69
2021/01/27 06:16:16;;;;;;;;;;;;;;;-1.46;100.00;100705.72;5114940;28;19977;-68
2021/01/27 06:18:42;;;;;;;;;;;;;;;-1.45;100.00;100697.69;5109793;28;20015;-69
2021/01/27 06:21:23;;;;;;;;;;;;;;;-1.44;100.00;100698.53;5095125;28;20290;-68
2021/01/27 06:23:54;;;;;;;;;;;;;;;-1.37;100.00;100706.28;5092436;28;20338;-68
2021/01/27 06:26:30;;;;;;;;;;;;;;;-1.36;100.00;100697.38;5094026;28;19924;-68
2021/01/27 06:29:03;;;;;;;;;;;;;;;-1.34;100.00;100700.00;5100880;28;19959;-68
2021/01/27 06:31:37;;;;;;;;;;;;;;;-1.30;100.00;100706.97;5114633;28;19974;-68
2021/01/27 06:34:19;;;;;;;;;;;;;;;-1.35;100.00;100696.47;5107297;28;19924;-68
2021/01/27 06:36:52;;;;;;;;;;;;;;;-1.33;100.00;100701.75;5093572;28;20015;-67
2021/01/27 06:39:36;;;;;;;;;;;;;;;-1.30;100.00;100704.31;5102170;28;20263;-68
2021/01/27 06:42:09;;;;;;;;;;;;;;;-1.27;100.00;100711.31;5114422;28;19966;-67
2021/01/27 06:44:40;;;;;;;;;;;;;;;-1.19;100.00;100706.63;5104041;28;19977;-68
2021/01/27 06:47:14;;;;;;;;;;;;;;;-1.15;100.00;100694.06;5107805;28;20311;-68
2021/01/27 06:49:56;;;;;;;;;;;;;;;-1.16;100.00;100705.63;5110634;28;20447;-68
2021/01/27 06:52:25;;;;;;;;;;;;;;;-1.14;100.00;100710.00;5096369;28;19990;-68
2021/01/27 06:55:01;;;;;;;;;;;;;;;-1.11;100.00;100711.69;5110601;28;20043;-68
2021/01/27 06:57:38;;;;;;;;;;;;;;;-1.11;100.00;100701.03;5105014;28;20284;-68
2021/01/27 07:00:17;;;;;;;;;;;;;;;-1.05;100.00;100715.03;5112494;28;19927;-68
2021/01/27 07:03:02;;;;;;;;;;;;;;;-1.11;100.00;100714.34;5108786;28;19970;-69
2021/01/27 07:05:45;;;;;;;;;;;;;;;-1.06;100.00;100704.44;5106971;28;19924;-68
2021/01/27 07:08:20;;;;;;;;;;;;;;;-1.06;100.00;100709.75;5107733;28;20014;-68
2021/01/27 07:10:50;;;;;;;;;;;;;;;-1.02;100.00;100703.41;5094186;28;19935;-68
2021/01/27 07:13:27;;;;;;;;;;;;;;;-1.06;100.00;100691.97;5114011;28;19977;-69
2021/01/27 07:15:57;;;;;;;;;;;;;;;-0.96;100.00;100708.53;5112435;28;19931;-68
2021/01/27 07:18:41;;;;;;;;;;;;;;;-0.93;100.00;100703.09;5113655;28;20446;-69
2021/01/27 07:21:08;;;;;;;;;;;;;;;-0.94;100.00;100698.66;5107052;28;20028;-69
2021/01/27 07:23:39;;;;;;;;;;;;;;;-0.88;100.00;100697.63;5093070;28;19942;-69
2021/01/27 07:26:09;;;;;;;;;;;;;;;-0.87;100.00;100702.00;5093102;28;19962;-69
2021/01/27 07:28:42;;;;;;;;;;;;;;;-0.80;100.00;100710.66;5094138;28;19928;-69
2021/01/27 07:31:12;;;;;;;;;;;;;;;-0.76;100.00;100706.97;5092696;28;20000;-68
2021/01/27 07:33:47;;;;;;;;;;;;;;;-0.76;100.00;100707.84;5092964;28;19974;-68
2021/01/27 07:36:20;;;;;;;;;;;;;;;-0.71;100.00;100707.69;5092120;28;19983;-68
2021/01/27 07:38:48;;;;;;;;;;;;;;;-0.66;100.00;100703.06;5093562;28;19968;-68
2021/01/27 07:41:15;;;;;;;;;;;;;;;-0.67;100.00;100703.97;5100917;28;19996;-68
2021/01/27 07:43:48;;;;;;;;;;;;;;;-0.64;100.00;100705.66;5092975;28;20282;-68
2021/01/27 07:46:14;;;;;;;;;;;;;;;-0.62;100.00;100696.69;5095430;28;20310;-68
2021/01/27 07:48:44;;;;;;;;;;;;;;;-0.61;100.00;100694.91;5112154;28;19924;-68
2021/01/27 07:51:12;;;;;;;;;;;;;;;-0.52;100.00;100700.78;5104523;28;19982;-68
2021/01/27 07:53:39;;;;;;;;;;;;;;;-0.49;100.00;100698.91;5092490;28;20022;-68
2021/01/27 07:56:08;;;;;;;;;;;;;;;-0.47;100.00;100697.09;5101085;28;19969;-68
2021/01/27 07:58:39;;;;;;;;;;;;;;;-0.51;100.00;100697.19;5110774;28;19955;-68
2021/01/27 08:01:10;;;;;;;;;;;;;;;-0.46;100.00;100701.50;5111532;28;19961;-68
2021/01/27 08:03:39;;;;;;;;;;;;;;;-0.40;100.00;100695.91;5112560;28;20267;-68
2021/01/27 08:06:07;;;;;;;;;;;;;;;-0.39;100.00;100703.91;5111819;28;19924;-68
2021/01/27 08:08:43;;;;;;;;;;;;;;;-0.35;100.00;100701.97;5093799;28;20358;-69
2021/01/27 08:11:11;;;;;;;;;;;;;;;-0.34;100.00;100703.72;5097250;28;19971;-68
2021/01/27 08:13:38;;;;;;;;;;;;;;;-0.29;100.00;100696.41;5112435;28;19934;-69
2021/01/27 08:16:23;;;;;;;;;;;;;;;-0.28;100.00;100697.28;5107478;28;19924;-69
2021/01/27 08:19:04;;;;;;;;;;;;;;;-0.15;100.00;100706.56;5092252;28;20020;-69
2021/01/27 08:21:30;;;;;;;;;;;;;;;-0.11;100.00;100707.34;5101695;28;20034;-69
2021/01/27 08:23:56;;;;;;;;;;;;;;;-0.09;100.00;100706.34;5112454;28;20005;-68
2021/01/27 08:26:43;;;;;;;;;;;;;;;-0.09;100.00;100697.50;5103190;28;20473;-68
2021/01/27 08:29:09;;;;;;;;;;;;;;;-0.02;100.00;100697.19;5086973;28;20009;-68
2021/01/27 08:31:35;;;;;;;;;;;;;;;-0.01;100.00;100695.41;5101703;28;20412;-68
2021/01/27 08:34:01;;;;;;;;;;;;;;;-0.05;100.00;100688.44;5112590;28;19924;-68
2021/01/27 08:36:45;;;;;;;;;;;;;;;0.04;100.00;100690.75;5111513;28;19924;-68
2021/01/27 08:39:22;;;;;;;;;;;;;;;0.13;100.00;100694.84;5104800;28;19971;-68
2021/01/27 08:41:52;;;;;;;;;;;;;;;0.18;100.00;100687.56;5091873;28;19928;-69
2021/01/27 08:44:30;;;;;;;;;;;;;;;0.20;100.00;100687.47;5102534;28;21556;-69
2021/01/27 08:46:57;;;;;;;;;;;;;;;0.25;100.00;100683.69;5111477;28;20389;-68
2021/01/27 08:49:50;;;;;;;;;;;;;;;0.27;100.00;100679.19;5100213;28;20350;-68
2021/01/27 08:52:29;;;;;;;;;;;;;;;0.31;100.00;100679.94;5048345;28;20317;-67
2021/01/27 08:54:56;;;;;;;;;;;;;;;0.37;100.00;100682.34;5097352;28;20332;-68
2021/01/27 08:57:26;;;;;;;;;;;;;;;0.41;100.00;100681.28;5110309;28;19924;-70
2021/01/27 08:59:53;;;;;;;;;;;;;;;0.55;100.00;100686.09;5111798;28;19928;-70
2021/01/27 09:02:37;;;;;;;;;;;;;;;0.64;100.00;100682.19;5098006;28;20381;-70
2021/01/27 09:05:06;;;;;;;;;;;;;;;0.72;100.00;100680.09;5092563;28;19932;-70
2021/01/27 09:07:33;;;;;;;;;;;;;;;0.72;100.00;100665.84;5095022;28;19974;-69
2021/01/27 09:10:02;;;;;;;;;;;;;;;0.71;100.00;100670.31;5111043;28;20030;-70
2021/01/27 09:12:28;;;;;;;;;;;;;;;0.69;100.00;100660.63;5111790;28;19973;-70
2021/01/27 09:14:54;;;;;;;;;;;;;;;0.81;100.00;100666.31;5106269;28;19978;-70
2021/01/27 09:17:20;;;;;;;;;;;;;;;0.90;100.00;100658.88;5090914;28;19967;-69
2021/01/27 09:19:46;;;;;;;;;;;;;;;0.94;100.00;100660.47;5094450;28;20285;-69
2021/01/27 09:22:19;;;;;;;;;;;;;;;0.91;100.00;100655.25;5111682;28;19924;-69
2021/01/27 09:24:46;;;;;;;;;;;;;;;0.95;100.00;100652.38;5112730;28;19991;-69
2021/01/27 09:27:18;;;;;;;;;;;;;;;0.96;100.00;100658.59;5094896;28;19924;-70
2021/01/27 09:29:44;;;;;;;;;;;;;;;1.07;100.00;100656.34;5108105;28;19924;-68
2021/01/27 09:32:12;;;;;;;;;;;;;;;1.16;100.00;100655.06;5107302;28;19924;-69
2021/01/27 09:34:38;;;;;;;;;;;;;;;1.20;100.00;100653.13;5100644;28;20498;-69
2021/01/27 09:37:04;;;;;;;;;;;;;;;1.28;100.00;100653.66;5107210;28;19939;-69
2021/01/27 09:39:32;;;;;;;;;;;;;;;1.33;100.00;100649.84;5108300;28;20444;-69
2021/01/27 09:41:59;;;;;;;;;;;;;;;1.21;100.00;100645.03;5107668;28;19959;-68
2021/01/27 09:44:33;;;;;;;;;;;;;;;1.32;100.00;100650.81;5103081;28;19963;-69
2021/01/27 09:47:04;;;;;;;;;;;;;;;1.40;100.00;100646.91;5094694;28;20009;-70
2021/01/27 09:49:32;;;;;;;;;;;;;;;1.48;100.00;100656.34;5098161;28;19969;-68
2021/01/27 09:51:59;;;;;;;;;;;;;;;1.52;100.00;100653.53;5099396;28;19935;-68
2021/01/27 09:54:25;;;;;;;;;;;;;;;1.40;100.00;100653.13;5094735;28;20011;-68
2021/01/27 09:56:51;;;;;;;;;;;;;;;1.26;100.00;100656.41;5112111;28;20022;-69
2021/01/27 09:59:18;;;;;;;;;;;;;;;1.19;100.00;100648.72;5115148;28;19931;-69
2021/01/27 10:01:47;;;;;;;;;;;;;;;1.32;100.00;100647.25;5099524;28;19928;-69
2021/01/27 10:04:14;;;;;;;;;;;;;;;1.41;100.00;100643.31;5105826;28;20007;-69
2021/01/27 10:06:42;;;;;;;;;;;;;;;1.60;100.00;100643.34;5113542;28;19959;-69
2021/01/27 10:09:13;;;;;;;;;;;;;;;1.64;100.00;100635.13;5107887;28;19924;-69
2021/01/27 10:11:40;;;;;;;;;;;;;;;1.72;100.00;100637.44;5112869;28;19930;-69
2021/01/27 10:14:07;;;;;;;;;;;;;;;1.66;100.00;100638.59;5113811;28;20026;-69
2021/01/27 10:16:33;;;;;;;;;;;;;;;1.67;100.00;100634.09;5112099;28;19947;-69
2021/01/27 10:19:01;;;;;;;;;;;;;;;1.75;100.00;100642.66;5114040;28;20041;-69
2021/01/27 10:21:27;;;;;;;;;;;;;;;1.71;100.00;100629.47;5114692;28;20019;-69
2021/01/27 10:23:53;;;;;;;;;;;;;;;1.73;100.00;100639.16;5104881;28;19978;-69
2021/01/27 10:26:31;;;;;;;;;;;;;;;1.60;100.00;100638.84;5093854;28;19935;-69
2021/01/27 10:29:21;;;;;;;;;;;;;;;1.67;100.00;100628.72;5107021;28;19970;-69
2021/01/27 10:31:48;;;;;;;;;;;;;;;1.66;100.00;100629.69;5113824;28;19924;-69
2021/01/27 10:34:29;;;;;;;;;;;;;;;1.76;100.00;100616.75;5093874;28;19931;-69
2021/01/27 10:36:55;;;;;;;;;;;;;;;2.00;100.00;100614.72;5113207;28;19935;-69
2021/01/27 10:39:22;;;;;;;;;;;;;;;2.22;100.00;100609.22;5094523;28;20007;-69
2021/01/27 10:41:50;;;;;;;;;;;;;;;2.61;100.00;100605.53;5102367;28;20011;-68
2021/01/27 10:44:19;;;;;;;;;;;;;;;3.00;100.00;100606.25;5114116;28;20393;-68
2021/01/27 10:46:45;;;;;;;;;;;;;;;3.16;100.00;100600.97;5103133;28;20026;-68
2021/01/27 10:49:11;;;;;;;;;;;;;;;3.87;100.00;100599.00;5107761;28;20346;-69
2021/01/27 10:51:37;;;;;;;;;;;;;;;4.52;100.00;100601.59;5113233;28;20014;-69
2021/01/27 10:54:04;;;;;;;;;;;;;;;4.77;100.00;100595.66;5110748;28;19924;-68
2021/01/27 10:56:30;;;;;;;;;;;;;;;4.94;100.00;100583.00;5113657;28;19924;-68
2021/01/27 10:58:56;;;;;;;;;;;;;;;5.31;100.00;100586.16;5107101;28;19931;-69
2021/01/27 11:01:21;;;;;;;;;;;;;;;5.62;100.00;100589.66;5107935;28;19924;-69
2021/01/27 11:03:47;;;;;;;;;;;;;;;5.85;100.00;100581.00;5104060;28;19935;-69
2021/01/27 11:06:13;;;;;;;;;;;;;;;5.71;100.00;100589.06;5108369;28;19992;-70
2021/01/27 11:08:41;;;;;;;;;;;;;;;5.51;100.00;100584.94;5112736;28;19928;-69
2021/01/27 11:11:07;;;;;;;;;;;;;;;5.63;100.00;100583.31;5113699;28;20483;-69
2021/01/27 11:13:35;;;;;;;;;;;;;;;5.43;100.00;100574.63;5106158;28;19928;-68
2021/01/27 11:16:02;;;;;;;;;;;;;;;5.69;100.00;100574.81;5112917;28;20038;-69
2021/01/27 11:18:27;;;;;;;;;;;;;;;6.09;100.00;100577.69;5110622;28;20027;-69
2021/01/27 11:20:53;;;;;;;;;;;;;;;6.29;100.00;100567.44;5108246;28;19931;-69
2021/01/27 11:23:20;;;;;;;;;;;;;;;6.02;100.00;100566.44;5097382;28;19959;-69
2021/01/27 11:25:47;;;;;;;;;;;;;;;5.98;100.00;100564.91;5092533;28;19977;-69
2021/01/27 11:28:14;;;;;;;;;;;;;;;6.15;100.00;100563.81;5110557;28;20015;-69
2021/01/27 11:30:40;;;;;;;;;;;;;;;6.22;100.00;100564.28;5106135;28;20389;-69
2021/01/27 11:33:05;;;;;;;;;;;;;;;6.18;100.00;100551.97;5107602;28;19924;-69
2021/01/27 11:35:31;;;;;;;;;;;;;;;5.76;100.00;100559.13;5109895;28;19969;-69
2021/01/27 11:37:57;;;;;;;;;;;;;;;5.45;100.00;100561.97;5108799;28;19992;-68
2021/01/27 11:40:24;;;;;;;;;;;;;;;4.86;100.00;100560.16;5110551;28;19932;-69
2021/01/27 11:42:50;;;;;;;;;;;;;;;4.59;100.00;100565.31;5111086;28;19974;-69
2021/01/27 11:45:17;;;;;;;;;;;;;;;4.27;100.00;100553.78;5112039;28;20274;-69
2021/01/27 11:47:43;;;;;;;;;;;;;;;4.10;100.00;100550.25;5111639;28;20006;-69
2021/01/27 11:50:10;;;;;;;;;;;;;;;3.82;100.00;100548.22;5111308;28;19923;-69
2021/01/27 11:52:36;;;;;;;;;;;;;;;3.77;100.00;100547.59;5112509;28;20022;-68
2021/01/27 11:55:01;;;;;;;;;;;;;;;3.59;100.00;100533.41;5112093;28;19924;-68
2021/01/27 11:57:27;;;;;;;;;;;;;;;3.44;100.00;100537.78;5111980;28;20026;-68
2021/01/27 11:59:53;;;;;;;;;;;;;;;3.42;100.00;100531.63;5111751;28;19924;-70
2021/01/27 12:02:20;;;;;;;;;;;;;;;3.43;100.00;100536.91;5109557;28;19931;-71
2021/01/27 12:04:45;;;;;;;;;;;;;;;3.48;100.00;100526.78;5110952;28;20448;-71
2021/01/27 12:07:11;;;;;;;;;;;;;;;3.61;100.00;100527.00;5111389;28;19931;-70
2021/01/27 12:09:37;;;;;;;;;;;;;;;3.57;100.00;100524.53;5112395;28;20035;-71
2021/01/27 12:12:03;;;;;;;;;;;;;;;3.64;100.00;100526.81;5104299;28;19964;-71
2021/01/27 12:14:29;;;;;;;;;;;;;;;3.62;100.00;100527.84;5102639;28;19931;-69
2021/01/27 12:16:55;;;;;;;;;;;;;;;3.62;100.00;100520.69;5110296;28;19931;-69
2021/01/27 12:19:22;;;;;;;;;;;;;;;3.53;100.00;100523.88;5105611;28;19969;-69
2021/01/27 12:21:47;;;;;;;;;;;;;;;3.74;100.00;100521.81;5112304;28;19977;-69
2021/01/27 12:24:13;;;;;;;;;;;;;;;3.94;100.00;100512.63;5111585;28;20389;-70
2021/01/27 12:26:40;;;;;;;;;;;;;;;4.10;100.00;100507.25;5111830;28;19977;-70
2021/01/27 12:29:05;;;;;;;;;;;;;;;3.94;100.00;100507.28;5096221;28;20129;-70
2021/01/27 12:31:31;;;;;;;;;;;;;;;4.04;100.00;100510.28;5091728;28;20344;-69
2021/01/27 12:33:57;;;;;;;;;;;;;;;3.96;100.00;100509.84;5106466;28;19928;-69
2021/01/27 12:36:24;;;;;;;;;;;;;;;3.63;100.00;100508.97;5110919;28;20400;-69
2021/01/27 12:38:49;;;;;;;;;;;;;;;3.73;100.00;100501.28;5101742;28;19924;-70
2021/01/27 12:41:15;;;;;;;;;;;;;;;3.73;100.00;100498.59;5111887;28;19924;-69